Time;durP1;ratioP1;P1;durP2;ratioP2;P2;SDS_P1;SDS_P2;PMS_P1;PMS_P2;Temp;Humidity;BMP_temperature;BMP_pressure;BME280_temperature;BME280_humidity;BME280_pressure;Samples;Min_cycle;Max_cycle;Signal;HPM_P1;HPM_P2
2022/07/21 00:00:18;;;;;;;2.30;2.10;;;24.10;60.10;;;;;;5093051;28;20226;-80
2022/07/21 00:02:47;;;;;;;3.05;2.22;;;24.10;60.50;;;;;;5093376;28;20232;-80
2022/07/21 00:05:17;;;;;;;2.63;2.33;;;24.00;61.10;;;;;;5092892;28;20316;-80
2022/07/21 00:07:45;;;;;;;2.47;2.00;;;23.90;61.30;;;;;;5093232;28;20224;-80
2022/07/21 00:10:15;;;;;;;1.83;1.73;;;23.90;61.30;;;;;;5092959;28;20224;-80
2022/07/21 00:12:44;;;;;;;2.20;2.00;;;23.80;60.90;;;;;;5093153;28;20310;-80
2022/07/21 00:15:13;;;;;;;7.43;2.03;;;23.80;60.90;;;;;;5093198;28;20204;-80
2022/07/21 00:17:42;;;;;;;2.30;2.10;;;23.80;61.20;;;;;;5092681;28;20270;-80
2022/07/21 00:20:12;;;;;;;2.72;2.15;;;23.80;60.80;;;;;;5092748;28;20228;-80
2022/07/21 00:22:41;;;;;;;3.40;2.45;;;23.80;60.90;;;;;;5092714;28;20228;-80
2022/07/21 00:25:11;;;;;;;2.40;1.90;;;23.80;61.00;;;;;;5092716;28;20235;-80
2022/07/21 00:27:40;;;;;;;1.88;1.77;;;23.80;61.30;;;;;;5092815;28;20220;-80
2022/07/21 00:30:10;;;;;;;1.73;1.60;;;23.80;61.30;;;;;;5092645;28;20236;-80
2022/07/21 00:32:38;;;;;;;2.15;1.98;;;23.70;61.80;;;;;;5092655;28;20236;-80
2022/07/21 00:35:08;;;;;;;2.13;1.92;;;23.70;62.50;;;;;;5092761;28;20291;-80
2022/07/21 00:37:37;;;;;;;3.90;2.45;;;23.70;61.10;;;;;;5092193;28;20251;-80
2022/07/21 00:40:08;;;;;;;2.28;2.08;;;23.60;62.50;;;;;;5092609;28;20244;-80
2022/07/21 00:42:37;;;;;;;2.08;1.90;;;23.60;62.30;;;;;;5092900;28;20228;-79
2022/07/21 00:45:07;;;;;;;2.90;2.53;;;23.50;63.10;;;;;;5092399;28;20247;-80
2022/07/21 00:47:35;;;;;;;3.58;2.63;;;23.50;63.30;;;;;;5092502;28;20293;-80
2022/07/21 00:50:07;;;;;;;3.97;2.17;;;23.40;62.80;;;;;;5092216;28;20204;-80
2022/07/21 00:52:35;;;;;;;5.30;2.53;;;23.30;63.20;;;;;;5092835;28;20239;-80
2022/07/21 00:55:09;;;;;;;2.70;2.47;;;23.30;62.80;;;;;;5092431;28;20205;-80
2022/07/21 00:57:37;;;;;;;2.88;2.03;;;23.40;63.30;;;;;;5092649;28;20278;-80
2022/07/21 01:00:09;;;;;;;3.15;2.10;;;23.30;64.40;;;;;;5092509;28;20271;-80
2022/07/21 01:02:37;;;;;;;3.42;2.55;;;23.30;63.70;;;;;;5092499;28;20208;-80
2022/07/21 01:05:12;;;;;;;5.00;2.78;;;23.30;63.30;;;;;;5092395;28;20263;-80
2022/07/21 01:07:41;;;;;;;3.60;2.03;;;23.30;64.00;;;;;;5092446;28;20227;-80
2022/07/21 01:10:12;;;;;;;1.90;1.80;;;23.30;63.30;;;;;;5092419;28;20203;-80
2022/07/21 01:12:41;;;;;;;6.03;2.20;;;23.30;64.00;;;;;;5092806;28;20265;-80
2022/07/21 01:15:12;;;;;;;2.03;1.83;;;23.20;64.30;;;;;;5092438;28;20235;-80
2022/07/21 01:17:42;;;;;;;2.65;2.20;;;23.20;63.90;;;;;;5092104;28;20236;-80
2022/07/21 01:20:13;;;;;;;2.47;2.28;;;23.20;64.30;;;;;;5092309;28;20230;-80
2022/07/21 01:22:45;;;;;;;2.58;1.98;;;23.20;63.80;;;;;;5092172;28;20229;-80
2022/07/21 01:25:13;;;;;;;2.00;1.85;;;23.10;64.60;;;;;;5092079;28;20324;-80
2022/07/21 01:27:42;;;;;;;17.55;2.22;;;23.10;64.90;;;;;;5092133;28;20312;-80
2022/07/21 01:30:12;;;;;;;2.90;2.28;;;23.10;65.50;;;;;;5091560;28;20243;-80
2022/07/21 01:32:41;;;;;;;2.95;2.75;;;23.10;66.10;;;;;;5092173;28;20232;-80
2022/07/21 01:35:12;;;;;;;2.70;2.42;;;23.10;66.20;;;;;;5091931;28;20257;-80
2022/07/21 01:37:44;;;;;;;2.47;2.25;;;23.20;66.40;;;;;;5092064;28;20220;-80
2022/07/21 01:43:00;;;;;;;26.77;2.10;;;23.20;67.20;;;;;;5092314;28;20211;-80
2022/07/21 01:45:29;;;;;;;2.75;2.33;;;23.20;67.00;;;;;;5092025;28;20295;-80
2022/07/21 01:47:58;;;;;;;2.40;2.20;;;23.20;66.90;;;;;;5091858;28;20233;-80
2022/07/21 01:50:27;;;;;;;3.17;2.88;;;23.20;67.80;;;;;;5092296;28;20283;-80
2022/07/21 01:52:59;;;;;;;2.67;2.47;;;23.10;66.90;;;;;;5092252;28;20243;-80
2022/07/21 01:55:28;;;;;;;2.47;2.28;;;23.10;67.90;;;;;;5092385;28;20196;-80
2022/07/21 01:57:57;;;;;;;5.68;2.13;;;23.10;67.70;;;;;;5095484;28;20221;-80
2022/07/21 02:00:25;;;;;;;3.15;2.80;;;23.00;67.60;;;;;;5095282;28;20201;-80
2022/07/21 02:02:53;;;;;;;5.68;2.65;;;22.90;69.60;;;;;;5096058;28;20235;-80
2022/07/21 02:05:22;;;;;;;2.53;2.33;;;22.80;69.00;;;;;;5095678;28;20235;-80
2022/07/21 02:07:51;;;;;;;4.25;2.88;;;22.70;68.70;;;;;;5095373;28;20224;-80
2022/07/21 02:10:21;;;;;;;1.83;1.70;;;22.60;69.20;;;;;;5094942;28;20204;-80
2022/07/21 02:12:49;;;;;;;2.47;2.25;;;22.50;69.90;;;;;;5095763;28;20231;-80
2022/07/21 02:15:17;;;;;;;2.55;2.35;;;22.40;69.50;;;;;;5094896;28;20260;-80
2022/07/21 02:17:46;;;;;;;2.50;2.30;;;22.30;69.70;;;;;;5095090;28;20259;-80
2022/07/21 02:20:14;;;;;;;2.53;2.00;;;22.30;70.40;;;;;;5095270;28;20303;-80
2022/07/21 02:22:45;;;;;;;3.63;2.40;;;22.20;70.40;;;;;;5095140;28;20212;-80
2022/07/21 02:25:13;;;;;;;21.10;2.80;;;22.10;70.60;;;;;;5094950;28;20220;-80
2022/07/21 02:27:43;;;;;;;2.10;2.00;;;22.10;70.50;;;;;;5094895;28;20252;-80
2022/07/21 02:30:12;;;;;;;2.65;2.45;;;22.10;71.30;;;;;;5095027;28;20227;-80
2022/07/21 02:32:41;;;;;;;3.35;2.50;;;22.00;71.10;;;;;;5094948;28;20220;-80
2022/07/21 02:35:10;;;;;;;2.42;1.88;;;22.00;70.70;;;;;;5094697;28;20254;-80
2022/07/21 02:37:38;;;;;;;3.17;2.35;;;22.00;70.90;;;;;;5094651;28;20267;-80
2022/07/21 02:40:08;;;;;;;3.05;2.50;;;21.90;71.10;;;;;;5094631;28;20228;-80
2022/07/21 02:42:37;;;;;;;2.15;2.00;;;21.90;71.50;;;;;;5094789;28;20228;-80
2022/07/21 02:45:09;;;;;;;3.42;2.28;;;21.90;71.10;;;;;;5094910;28;20224;-80
2022/07/21 02:47:50;;;;;;;2.85;2.55;;;21.80;71.70;;;;;;5094569;28;20220;-80
2022/07/21 02:50:19;;;;;;;2.33;2.10;;;21.80;71.40;;;;;;5094338;28;20280;-80
2022/07/21 02:52:48;;;;;;;2.38;2.10;;;21.90;73.10;;;;;;5094736;28;20254;-80
2022/07/21 02:55:17;;;;;;;3.00;2.70;;;21.90;72.40;;;;;;5094314;28;20264;-80
2022/07/21 02:57:45;;;;;;;3.38;1.98;;;21.90;72.30;;;;;;5094666;28;20284;-80
2022/07/21 03:00:15;;;;;;;2.38;2.20;;;21.90;72.00;;;;;;5094029;28;20227;-80
2022/07/21 03:02:44;;;;;;;4.05;2.75;;;21.90;71.50;;;;;;5094320;28;20239;-80
2022/07/21 03:05:12;;;;;;;4.65;2.20;;;21.90;72.00;;;;;;5094017;28;20319;-80
2022/07/21 03:07:40;;;;;;;2.65;2.22;;;21.80;72.50;;;;;;5094173;28;20248;-80
2022/07/21 03:10:09;;;;;;;2.35;1.92;;;21.80;72.90;;;;;;5094003;28;20224;-80
2022/07/21 03:12:38;;;;;;;2.40;2.20;;;22.00;73.00;;;;;;5094095;28;20205;-80
2022/07/21 03:15:07;;;;;;;2.38;2.25;;;22.10;72.10;;;;;;5094390;28;20200;-80
2022/07/21 03:17:37;;;;;;;2.30;2.10;;;22.00;72.70;;;;;;5094114;28;20240;-80
2022/07/21 03:20:06;;;;;;;3.08;2.40;;;22.00;73.40;;;;;;5093926;28;20200;-80
2022/07/21 03:22:34;;;;;;;2.60;2.28;;;22.00;72.40;;;;;;5094061;28;20296;-80
2022/07/21 03:25:03;;;;;;;2.67;2.47;;;22.00;72.30;;;;;;5093869;28;20226;-80
2022/07/21 03:27:35;;;;;;;2.00;1.90;;;21.90;72.60;;;;;;5094159;28;20307;-80
2022/07/21 03:30:09;;;;;;;2.10;1.90;;;21.80;73.70;;;;;;5093688;28;20277;-80
2022/07/21 03:32:39;;;;;;;2.30;2.10;;;21.80;74.00;;;;;;5094111;28;20216;-80
2022/07/21 03:35:10;;;;;;;2.88;2.20;;;21.70;74.50;;;;;;5093838;28;20290;-80
2022/07/21 03:37:42;;;;;;;3.78;2.03;;;21.70;73.80;;;;;;5093905;28;20229;-80
2022/07/21 03:40:11;;;;;;;1.92;1.70;;;21.60;74.20;;;;;;5093613;28;20259;-80
2022/07/21 03:42:41;;;;;;;3.00;2.40;;;21.60;74.40;;;;;;5093625;28;20216;-80
2022/07/21 03:45:10;;;;;;;2.22;2.10;;;21.60;75.20;;;;;;5093559;28;20234;-80
2022/07/21 03:47:40;;;;;;;2.60;2.22;;;21.60;75.40;;;;;;5093593;28;20295;-80
2022/07/21 03:50:11;;;;;;;2.42;2.22;;;21.60;75.70;;;;;;5093235;28;20204;-80
2022/07/21 03:52:40;;;;;;;5.10;2.42;;;21.70;75.20;;;;;;5093686;28;20204;-80
2022/07/21 03:55:09;;;;;;;2.75;2.55;;;21.70;75.00;;;;;;5093189;28;20213;-80
2022/07/21 03:57:45;;;;;;;2.25;2.15;;;21.70;75.00;;;;;;5093341;28;20224;-80
2022/07/21 04:00:15;;;;;;;5.72;2.88;;;21.70;74.80;;;;;;5093143;28;20208;-80
2022/07/21 04:02:45;;;;;;;3.65;2.88;;;21.80;75.50;;;;;;5093631;28;20231;-80
2022/07/21 04:05:16;;;;;;;2.88;2.50;;;21.80;74.70;;;;;;5093631;28;20261;-80
2022/07/21 04:07:46;;;;;;;2.30;2.03;;;21.90;74.90;;;;;;5092744;28;20251;-80
2022/07/21 04:10:18;;;;;;;2.45;2.25;;;21.90;74.50;;;;;;5093125;28;20235;-80
2022/07/21 04:12:46;;;;;;;2.72;2.53;;;22.00;74.50;;;;;;5093153;28;20235;-80
2022/07/21 04:15:15;;;;;;;11.35;2.97;;;22.00;74.10;;;;;;5092986;28;20223;-80
2022/07/21 04:17:45;;;;;;;3.88;2.45;;;22.10;74.40;;;;;;5092921;28;20224;-80
2022/07/21 04:20:14;;;;;;;2.80;2.60;;;22.10;74.00;;;;;;5092839;28;20232;-80
2022/07/21 04:22:44;;;;;;;2.72;2.53;;;22.20;73.00;;;;;;5092797;28;20207;-80
2022/07/21 04:25:14;;;;;;;2.72;2.42;;;22.20;73.30;;;;;;5092587;28;20232;-80
2022/07/21 04:27:42;;;;;;;2.92;2.72;;;22.30;72.70;;;;;;5092113;28;20291;-80
2022/07/21 04:30:14;;;;;;;2.63;2.40;;;22.40;72.60;;;;;;5092796;28;20200;-80
2022/07/21 04:32:43;;;;;;;2.60;2.40;;;22.40;72.30;;;;;;5092884;28;20227;-80
2022/07/21 04:35:14;;;;;;;2.88;2.63;;;22.50;72.60;;;;;;5092786;28;20326;-80
2022/07/21 04:37:43;;;;;;;3.10;2.55;;;22.50;72.10;;;;;;5092814;28;20243;-80
2022/07/21 04:40:13;;;;;;;2.63;2.42;;;22.60;72.70;;;;;;5092370;28;20262;-80
2022/07/21 04:42:43;;;;;;;2.28;2.08;;;22.60;71.20;;;;;;5092778;28;20231;-80
2022/07/21 04:45:13;;;;;;;3.00;2.80;;;22.70;71.30;;;;;;5092863;28;20200;-80
2022/07/21 04:47:46;;;;;;;3.08;2.75;;;22.70;71.00;;;;;;5092308;28;20228;-80
2022/07/21 04:50:17;;;;;;;3.30;2.95;;;22.80;70.90;;;;;;5092626;28;20208;-80
2022/07/21 04:52:46;;;;;;;2.85;2.63;;;22.80;71.10;;;;;;5092592;28;20200;-80
2022/07/21 04:55:15;;;;;;;2.47;2.30;;;22.90;71.50;;;;;;5092419;28;20196;-80
2022/07/21 04:57:45;;;;;;;3.03;2.72;;;22.90;72.00;;;;;;5092685;28;20255;-80
2022/07/21 05:00:15;;;;;;;2.50;2.30;;;22.90;71.10;;;;;;5092377;28;20227;-80
2022/07/21 05:02:45;;;;;;;3.60;3.22;;;23.00;70.40;;;;;;5092790;28;20204;-80
2022/07/21 05:05:14;;;;;;;5.60;2.97;;;23.00;70.40;;;;;;5092326;28;20235;-80
2022/07/21 05:07:44;;;;;;;6.25;2.67;;;23.10;70.90;;;;;;5092806;28;20244;-80
2022/07/21 05:10:15;;;;;;;3.08;2.88;;;23.20;70.50;;;;;;5092765;28;20219;-74
2022/07/21 05:12:43;;;;;;;9.98;3.58;;;23.20;71.10;;;;;;5083504;28;20204;-74
2022/07/21 05:15:12;;;;;;;3.03;2.80;;;23.20;71.30;;;;;;5072538;28;20240;-74
2022/07/21 05:17:41;;;;;;;4.60;2.88;;;23.30;71.10;;;;;;5072153;28;20249;-74
2022/07/21 05:20:10;;;;;;;3.47;2.65;;;23.40;71.40;;;;;;5072413;28;20205;-74
2022/07/21 05:22:39;;;;;;;4.05;3.10;;;23.40;71.60;;;;;;5072659;28;20213;-74
2022/07/21 05:25:15;;;;;;;9.77;4.00;;;23.50;71.50;;;;;;5072943;28;20208;-73
2022/07/21 05:27:43;;;;;;;3.78;2.85;;;23.60;72.40;;;;;;5085865;28;20307;-74
2022/07/21 05:30:12;;;;;;;4.88;3.10;;;23.70;73.40;;;;;;5091955;28;20296;-74
2022/07/21 05:32:40;;;;;;;4.45;2.72;;;23.70;72.80;;;;;;5096469;28;20208;-74
2022/07/21 05:35:15;;;;;;;4.03;3.70;;;23.80;73.20;;;;;;5095770;28;20196;-74
2022/07/21 05:37:45;;;;;;;3.70;3.40;;;23.90;72.90;;;;;;5096367;28;20244;-74
2022/07/21 05:40:15;;;;;;;3.33;3.03;;;24.00;73.20;;;;;;5096421;28;20291;-74
2022/07/21 05:42:43;;;;;;;12.95;3.22;;;24.10;74.20;;;;;;5096303;28;20234;-74
2022/07/21 05:45:12;;;;;;;3.55;3.25;;;24.30;74.30;;;;;;5096070;28;20201;-83
2022/07/21 05:47:41;;;;;;;3.67;3.13;;;24.30;74.10;;;;;;5095461;28;20224;-84
2022/07/21 05:50:10;;;;;;;3.60;3.25;;;24.50;74.50;;;;;;5097476;28;20227;-95
2022/07/21 05:52:40;;;;;;;4.97;3.95;;;24.50;74.60;;;;;;5102786;28;20280;-95
2022/07/21 05:55:12;;;;;;;3.90;3.60;;;24.60;74.90;;;;;;5092044;28;20253;-95
2022/07/21 05:57:42;;;;;;;4.15;3.60;;;24.70;75.80;;;;;;5099725;28;20243;-95
2022/07/21 06:00:18;;;;;;;4.57;4.00;;;24.70;75.90;;;;;;5104819;28;20200;-95
2022/07/21 06:02:47;;;;;;;3.72;3.42;;;24.80;76.30;;;;;;5096810;28;20207;-95
2022/07/21 06:05:17;;;;;;;3.95;3.55;;;24.90;76.30;;;;;;5095571;28;20196;-92
2022/07/21 06:07:52;;;;;;;3.33;3.05;;;25.00;76.40;;;;;;5096580;28;20238;-90
2022/07/21 06:10:20;;;;;;;5.03;3.20;;;25.00;75.30;;;;;;5095590;28;20250;-93
2022/07/21 06:12:53;;;;;;;4.97;3.15;;;25.00;75.20;;;;;;5095485;28;20285;-93
2022/07/21 06:15:21;;;;;;;4.32;3.88;;;25.10;74.60;;;;;;5095593;28;20265;-92
2022/07/21 06:17:49;;;;;;;5.78;4.18;;;25.20;76.90;;;;;;5095055;28;20244;-92
2022/07/21 06:20:18;;;;;;;3.95;3.65;;;25.20;76.70;;;;;;5095159;28;20281;-93
2022/07/21 06:22:46;;;;;;;5.22;3.75;;;25.30;77.10;;;;;;5095242;28;20269;-92
2022/07/21 06:25:15;;;;;;;5.05;4.45;;;25.40;77.20;;;;;;5094751;28;20204;-93
2022/07/21 06:27:43;;;;;;;5.72;3.97;;;25.50;77.70;;;;;;5095112;28;20232;-94
2022/07/21 06:30:14;;;;;;;5.13;4.20;;;25.60;77.70;;;;;;5095019;28;20258;-92
2022/07/21 06:32:44;;;;;;;4.95;3.85;;;25.70;77.70;;;;;;5095212;28;20196;-93
2022/07/21 06:35:12;;;;;;;13.35;4.22;;;25.80;78.20;;;;;;5095213;28;20205;-93
2022/07/21 06:37:45;;;;;;;8.82;5.15;;;26.00;77.90;;;;;;5095015;28;20224;-93
2022/07/21 06:40:14;;;;;;;7.22;5.40;;;26.20;77.80;;;;;;5094552;28;20200;-93
2022/07/21 06:42:43;;;;;;;5.13;4.63;;;26.30;77.50;;;;;;5094736;28;20201;-93
2022/07/21 06:45:33;;;;;;;5.18;4.45;;;26.50;77.90;;;;;;5095020;28;20287;-93
2022/07/21 06:48:03;;;;;;;8.38;4.65;;;26.60;77.10;;;;;;5094857;28;20228;-93
2022/07/21 06:50:32;;;;;;;13.32;4.95;;;26.70;77.10;;;;;;5094549;28;20201;-93
2022/07/21 06:53:00;;;;;;;6.95;5.05;;;26.80;77.00;;;;;;5094598;28;20261;-93
2022/07/21 06:55:28;;;;;;;5.07;4.63;;;26.90;76.40;;;;;;5094583;28;20200;-93
2022/07/21 06:57:57;;;;;;;6.10;5.05;;;27.00;76.20;;;;;;5094520;28;20286;-93
2022/07/21 07:00:25;;;;;;;7.97;4.60;;;27.10;76.00;;;;;;5094904;28;20277;-93
2022/07/21 07:02:55;;;;;;;5.88;5.10;;;27.20;75.80;;;;;;5094605;28;20200;-93
2022/07/21 07:05:23;;;;;;;7.32;4.65;;;27.30;75.70;;;;;;5094474;28;20226;-92
2022/07/21 07:07:52;;;;;;;5.22;4.75;;;27.50;75.50;;;;;;5094482;28;20228;-93
2022/07/21 07:10:20;;;;;;;5.88;5.00;;;27.70;74.70;;;;;;5094018;28;20208;-93
2022/07/21 07:12:49;;;;;;;9.13;4.72;;;27.90;74.50;;;;;;5094378;28;20265;-93
2022/07/21 07:15:38;;;;;;;5.45;4.60;;;28.00;74.00;;;;;;5094087;28;20299;-93
2022/07/21 07:18:08;;;;;;;9.07;4.35;;;28.10;73.50;;;;;;5094016;28;20236;-93
2022/07/21 07:20:36;;;;;;;5.93;5.28;;;28.10;73.90;;;;;;5093755;28;20254;-93
2022/07/21 07:23:05;;;;;;;8.45;4.97;;;28.30;73.10;;;;;;5094100;28;20200;-93
2022/07/21 07:25:34;;;;;;;9.65;4.43;;;28.40;72.60;;;;;;5093536;28;20211;-94
2022/07/21 07:28:03;;;;;;;5.07;4.57;;;28.60;72.00;;;;;;5094190;28;20228;-93
2022/07/21 07:30:31;;;;;;;4.78;4.28;;;29.00;71.30;;;;;;5093927;28;20208;-93
2022/07/21 07:32:59;;;;;;;5.10;4.55;;;29.30;70.60;;;;;;5093728;28;20219;-94
2022/07/21 07:35:29;;;;;;;7.07;5.13;;;30.10;69.20;;;;;;5093782;28;20333;-93
2022/07/21 07:37:57;;;;;;;4.18;3.88;;;30.50;68.10;;;;;;5093368;28;20228;-93
2022/07/21 07:40:25;;;;;;;5.35;4.85;;;31.00;67.20;;;;;;5093461;28;20216;-93
2022/07/21 07:42:54;;;;;;;5.65;4.55;;;31.40;66.00;;;;;;5093945;28;20200;-93
2022/07/21 07:45:22;;;;;;;8.05;5.25;;;31.90;64.50;;;;;;5093763;28;20208;-94
2022/07/21 07:47:51;;;;;;;4.80;4.40;;;32.30;63.80;;;;;;5093537;28;20301;-93
2022/07/21 07:50:19;;;;;;;8.00;4.13;;;32.60;62.30;;;;;;5092920;28;20231;-93
2022/07/21 07:52:49;;;;;;;5.50;4.70;;;32.70;62.60;;;;;;5093014;28;20204;-94
2022/07/21 07:55:18;;;;;;;7.20;4.18;;;33.00;61.80;;;;;;5092814;28;20204;-94
2022/07/21 07:57:46;;;;;;;4.43;4.03;;;33.30;61.20;;;;;;5093080;28;20224;-93
2022/07/21 08:00:17;;;;;;;5.70;4.28;;;34.00;58.70;;;;;;5093417;28;20226;-94
2022/07/21 08:03:05;;;;;;;6.47;4.22;;;34.10;57.60;;;;;;5093163;28;20313;-93
2022/07/21 08:05:34;;;;;;;4.82;4.00;;;34.70;57.20;;;;;;5093587;28;20199;-94
2022/07/21 08:08:04;;;;;;;4.63;3.50;;;34.90;57.00;;;;;;5093140;28;20251;-94
2022/07/21 08:10:32;;;;;;;4.50;4.18;;;35.00;57.00;;;;;;5093090;28;20204;-94
2022/07/21 08:13:11;;;;;;;4.20;3.80;;;35.10;56.20;;;;;;5092934;28;20210;-94
2022/07/21 08:15:40;;;;;;;6.72;4.60;;;35.10;56.00;;;;;;5092910;28;20207;-94
2022/07/21 08:18:08;;;;;;;5.00;4.13;;;35.50;55.20;;;;;;5092951;28;20243;-94
2022/07/21 08:20:38;;;;;;;4.30;3.90;;;36.00;54.50;;;;;;5092871;28;20204;-94
2022/07/21 08:23:08;;;;;;;4.45;4.05;;;36.50;54.50;;;;;;5093208;28;20208;-93
2022/07/21 08:25:39;;;;;;;3.80;3.55;;;35.90;54.60;;;;;;5093065;28;20279;-94
2022/07/21 08:28:08;;;;;;;4.13;3.67;;;36.00;54.40;;;;;;5093368;28;20220;-94
2022/07/21 08:30:37;;;;;;;4.20;3.90;;;36.50;52.40;;;;;;5092896;28;20200;-94
2022/07/21 08:33:06;;;;;;;3.97;3.40;;;36.20;52.50;;;;;;5092816;28;20203;-94
2022/07/21 08:35:34;;;;;;;6.60;4.10;;;36.30;52.30;;;;;;5092567;28;20203;-94
2022/07/21 08:38:05;;;;;;;3.70;3.50;;;36.70;52.00;;;;;;5093030;28;20228;-95
2022/07/21 08:40:38;;;;;;;4.22;3.83;;;37.10;52.00;;;;;;5093042;28;20249;-94
2022/07/21 08:43:08;;;;;;;4.82;4.20;;;36.90;51.10;;;;;;5092663;28;20204;-94
2022/07/21 08:45:37;;;;;;;4.05;3.63;;;37.20;51.90;;;;;;5092773;28;20208;-94
2022/07/21 08:48:08;;;;;;;9.88;3.60;;;36.70;51.70;;;;;;5092446;28;20220;-94
2022/07/21 08:50:40;;;;;;;5.07;4.13;;;36.90;52.10;;;;;;5092578;28;20231;-94
2022/07/21 08:53:08;;;;;;;6.97;3.45;;;37.40;51.30;;;;;;5092616;28;20252;-95
2022/07/21 08:55:40;;;;;;;7.68;4.03;;;37.40;50.80;;;;;;5092616;28;20215;-95
2022/07/21 08:58:10;;;;;;;3.83;3.53;;;38.10;50.10;;;;;;5092684;28;20277;-95
2022/07/21 09:00:41;;;;;;;3.40;3.20;;;38.30;49.30;;;;;;5092286;28;20200;-94
2022/07/21 09:03:11;;;;;;;4.93;4.32;;;38.70;49.00;;;;;;5092224;28;20208;-94
2022/07/21 09:05:40;;;;;;;3.92;3.63;;;38.80;48.50;;;;;;5094883;28;20204;-94
2022/07/21 09:08:09;;;;;;;4.20;3.90;;;38.20;48.90;;;;;;5096585;28;20276;-94
2022/07/21 09:10:39;;;;;;;4.97;3.53;;;38.60;48.70;;;;;;5096043;28;20227;-95
2022/07/21 09:13:08;;;;;;;3.60;3.30;;;39.00;48.40;;;;;;5096911;28;20203;-95
2022/07/21 09:15:38;;;;;;;4.15;3.83;;;39.40;48.40;;;;;;5096505;28;20271;-95
2022/07/21 09:18:12;;;;;;;4.07;3.42;;;39.10;47.80;;;;;;5096393;28;20345;-95
2022/07/21 09:20:49;;;;;;;6.60;4.38;;;38.20;47.60;;;;;;5096088;28;20203;-95
2022/07/21 09:23:19;;;;;;;3.45;3.17;;;37.40;48.30;;;;;;5096243;28;20199;-95
2022/07/21 09:25:51;;;;;;;4.95;3.72;;;37.60;50.40;;;;;;5096353;28;20204;-95
2022/07/21 09:28:22;;;;;;;4.63;3.78;;;37.50;49.30;;;;;;5095971;28;20224;-95
2022/07/21 09:30:58;;;;;;;5.15;3.42;;;37.30;50.00;;;;;;5096214;28;20196;-96
2022/07/21 09:33:31;;;;;;;4.72;3.30;;;37.60;49.90;;;;;;5096060;28;20237;-94
2022/07/21 09:36:03;;;;;;;3.60;3.35;;;38.10;48.90;;;;;;5095690;28;20223;-95
2022/07/21 09:38:34;;;;;;;3.28;2.92;;;38.30;48.30;;;;;;5096348;28;20269;-94
2022/07/21 09:41:09;;;;;;;3.63;3.33;;;38.20;49.00;;;;;;5096348;28;20208;-95
2022/07/21 09:43:42;;;;;;;4.93;4.53;;;38.50;49.10;;;;;;5096006;28;20233;-95
2022/07/21 09:46:14;;;;;;;4.13;3.63;;;38.30;48.40;;;;;;5095814;28;20212;-95
2022/07/21 09:48:44;;;;;;;4.78;3.75;;;38.60;49.00;;;;;;5095832;28;20224;-95
2022/07/21 09:51:24;;;;;;;8.50;3.88;;;38.40;48.30;;;;;;5095962;28;20231;-95
2022/07/21 09:53:54;;;;;;;4.10;3.80;;;38.20;49.40;;;;;;5095881;28;20252;-95
2022/07/21 09:56:25;;;;;;;4.40;4.00;;;38.40;50.30;;;;;;5095491;28;20234;-95
2022/07/21 09:58:55;;;;;;;5.60;3.90;;;38.60;47.40;;;;;;5095520;28;20204;-95
2022/07/21 10:01:26;;;;;;;4.03;3.72;;;38.50;49.10;;;;;;5095507;28;20252;-95
2022/07/21 10:03:56;;;;;;;4.10;3.50;;;38.60;47.60;;;;;;5095686;28;20294;-95
2022/07/21 10:06:27;;;;;;;4.03;3.72;;;38.60;47.50;;;;;;5095523;28;20212;-95
2022/07/21 10:08:57;;;;;;;4.03;3.78;;;38.60;49.20;;;;;;5095362;28;20208;-95
2022/07/21 10:11:28;;;;;;;3.10;2.90;;;39.20;48.40;;;;;;5095294;28;20203;-95
2022/07/21 10:13:58;;;;;;;3.80;3.58;;;39.30;48.20;;;;;;5095593;28;20222;-95
2022/07/21 10:16:26;;;;;;;5.72;4.05;;;39.70;48.20;;;;;;5094396;28;20260;-95
2022/07/21 10:19:01;;;;;;;4.10;3.80;;;39.80;47.00;;;;;;5120617;22;20224;-88
2022/07/21 10:21:40;;;;;;;5.22;3.80;;;40.00;46.30;;;;;;5094990;28;20248;-88
2022/07/21 10:24:11;;;;;;;4.35;3.95;;;39.50;45.00;;;;;;5095363;28;20257;-88
2022/07/21 10:27:04;;;;;;;3.85;3.60;;;38.90;45.20;;;;;;5095064;28;20203;-88
2022/07/21 10:30:00;;;;;;;4.57;4.18;;;39.20;45.30;;;;;;5074854;28;20262;-89
2022/07/21 10:32:35;;;;;;;17.20;4.50;;;39.50;46.20;;;;;;5074507;28;20196;-89
2022/07/21 10:35:24;;;;;;;10.52;4.38;;;39.20;45.40;;;;;;5075218;28;20221;-88
2022/07/21 10:37:53;;;;;;;5.25;4.82;;;38.60;46.80;;;;;;5074307;28;20248;-88
2022/07/21 10:40:40;;;;;;;5.47;3.88;;;38.10;47.20;;;;;;5074664;28;20220;-88
2022/07/21 10:43:39;;;;;;;4.63;4.07;;;38.20;47.70;;;;;;5074851;28;20259;-87
2022/07/21 10:46:40;;;;;;;4.43;4.03;;;38.60;47.30;;;;;;5074410;28;20207;-88
2022/07/21 10:49:10;;;;;;;4.47;4.07;;;38.40;46.50;;;;;;5074172;28;20228;-88
2022/07/21 10:51:39;;;;;;;8.18;4.90;;;38.60;47.60;;;;;;5074703;28;20200;-87
2022/07/21 10:54:25;;;;;;;5.22;4.50;;;38.20;47.10;;;;;;5074571;28;20212;-87
2022/07/21 10:57:26;;;;;;;4.22;3.92;;;37.20;48.20;;;;;;5074325;28;20212;-87
2022/07/21 11:00:27;;;;;;;4.38;3.97;;;36.70;50.20;;;;;;5074252;28;20231;-87
2022/07/21 11:02:57;;;;;;;4.57;4.18;;;37.20;50.30;;;;;;5074248;28;20278;-87
2022/07/21 11:05:28;;;;;;;5.45;4.82;;;37.50;50.50;;;;;;5074213;28;20274;-87
2022/07/21 11:08:17;;;;;;;4.20;3.90;;;38.20;50.30;;;;;;5074471;28;20248;-87
2022/07/21 11:10:48;;;;;;;7.18;3.80;;;37.80;47.40;;;;;;5073736;28;20220;-87
2022/07/21 11:13:18;;;;;;;4.63;3.95;;;37.60;46.90;;;;;;5073945;28;20262;-87
2022/07/21 11:15:56;;;;;;;5.10;3.20;;;38.00;47.80;;;;;;5074067;28;20204;-87
2022/07/21 11:18:27;;;;;;;4.70;4.15;;;38.40;46.60;;;;;;5073809;28;20228;-87
2022/07/21 11:21:12;;;;;;;7.22;4.15;;;38.30;47.00;;;;;;5073980;28;20201;-87
2022/07/21 11:23:42;;;;;;;8.75;3.97;;;38.70;47.60;;;;;;5073749;28;20283;-87
2022/07/21 11:26:12;;;;;;;14.77;4.22;;;;;;;;;;5073751;28;20266;-87
2022/07/21 11:28:41;;;;;;;11.02;4.72;;;39.30;45.90;;;;;;5072547;28;20244;-87
2022/07/21 11:31:16;;;;;;;4.15;3.85;;;38.80;46.60;;;;;;5073570;28;20258;-87
2022/07/21 11:33:47;;;;;;;4.18;3.88;;;38.80;46.30;;;;;;5073550;28;20234;-87
2022/07/21 11:36:27;;;;;;;14.80;4.22;;;38.60;47.80;;;;;;5073714;28;20219;-87
2022/07/21 11:39:01;;;;;;;5.20;4.40;;;38.80;45.80;;;;;;5073359;28;20284;-88
2022/07/21 11:41:29;;;;;;;3.72;3.42;;;38.10;47.40;;;;;;5073553;28;20231;-87
2022/07/21 11:43:58;;;;;;;4.82;4.30;;;38.30;46.90;;;;;;5073318;28;20205;-88
2022/07/21 11:46:28;;;;;;;4.63;4.22;;;38.70;46.80;;;;;;5073034;28;20216;-87
2022/07/21 11:49:06;;;;;;;4.75;3.75;;;39.00;46.20;;;;;;5073423;28;20224;-88
2022/07/21 11:51:35;;;;;;;4.35;3.95;;;39.30;46.00;;;;;;5073038;28;20291;-87
2022/07/21 11:54:03;;;;;;;5.22;4.72;;;39.60;45.50;;;;;;5073227;28;20246;-87
2022/07/21 11:56:39;;;;;;;4.30;4.00;;;39.20;46.10;;;;;;5073171;28;20224;-88
2022/07/21 11:59:11;;;;;;;5.43;4.05;;;39.30;47.90;;;;;;5073216;28;20349;-87
2022/07/21 12:01:58;;;;;;;4.47;4.07;;;39.70;46.40;;;;;;5073157;28;20224;-87
2022/07/21 12:04:29;;;;;;;4.32;3.97;;;40.10;47.30;;;;;;5073231;28;20306;-87
2022/07/21 12:06:58;;;;;;;5.05;4.55;;;40.00;46.30;;;;;;5072817;28;20208;-87
2022/07/21 12:09:26;;;;;;;8.05;4.63;;;39.60;46.70;;;;;;5072898;28;20266;-88
2022/07/21 12:11:54;;;;;;;5.40;5.00;;;39.60;46.70;;;;;;5073018;28;20248;-86
2022/07/21 12:14:48;;;;;;;4.22;3.92;;;39.50;47.10;;;;;;5073129;28;20224;-86
2022/07/21 12:17:33;;;;;;;4.85;4.38;;;39.80;46.70;;;;;;5072715;28;20287;-86
2022/07/21 12:20:01;;;;;;;5.40;4.68;;;40.30;46.50;;;;;;5073049;28;20208;-87
2022/07/21 12:22:36;;;;;;;5.57;5.07;;;40.70;47.50;;;;;;5073057;28;20214;-88
2022/07/21 12:25:07;;;;;;;4.88;4.47;;;41.20;46.20;;;;;;5072593;28;20268;-87
2022/07/21 12:27:36;;;;;;;4.13;3.78;;;40.90;45.20;;;;;;5072782;28;20217;-85
2022/07/21 12:30:07;;;;;;;5.63;4.18;;;40.80;45.10;;;;;;5072429;28;20211;-86
2022/07/21 12:32:48;;;;;;;4.47;4.18;;;40.90;44.60;;;;;;5072806;28;20211;-85
2022/07/21 12:35:27;;;;;;;3.97;3.63;;;40.70;45.50;;;;;;5072792;28;20279;-86
2022/07/21 12:38:03;;;;;;;5.43;3.72;;;40.10;45.20;;;;;;5072254;28;20238;-86
2022/07/21 12:40:33;;;;;;;4.90;4.50;;;39.60;45.60;;;;;;5072067;28;20287;-86
2022/07/21 12:43:14;;;;;;;5.05;4.53;;;38.90;46.30;;;;;;5072731;28;20296;-86
2022/07/21 12:45:48;;;;;;;4.72;4.32;;;38.70;46.90;;;;;;5072694;28;20211;-86
2022/07/21 12:48:20;;;;;;;4.75;4.10;;;38.60;47.60;;;;;;5072389;28;20221;-88
2022/07/21 12:51:04;;;;;;;4.43;4.13;;;38.70;47.10;;;;;;5072377;28;20232;-86
2022/07/21 12:53:33;;;;;;;4.30;4.00;;;38.90;48.10;;;;;;5072751;28;20306;-86
2022/07/21 12:56:02;;;;;;;4.63;4.20;;;38.90;46.50;;;;;;5072592;28;20283;-83
2022/07/21 12:58:30;;;;;;;4.07;3.72;;;38.50;46.50;;;;;;5072218;28;20311;-83
2022/07/21 13:00:59;;;;;;;6.32;4.55;;;38.00;46.50;;;;;;5054939;28;20200;-83
2022/07/21 13:03:31;;;;;;;4.55;4.15;;;38.10;47.40;;;;;;5072716;28;20273;-83
2022/07/21 13:06:00;;;;;;;5.22;4.78;;;38.10;47.10;;;;;;5072310;28;20232;-83
2022/07/21 13:08:28;;;;;;;6.93;4.78;;;38.00;47.20;;;;;;5072257;28;20228;-83
2022/07/21 13:10:57;;;;;;;5.25;4.70;;;38.10;47.90;;;;;;5072141;28;20305;-83